sensor_id;sensor_type;location;lat;lon;timestamp;P1;durP1;ratioP1;P2;durP2;ratioP2
22336;SDS011;14992;50.844;4.418;2023-04-24T00:01:43;19.45;;;9.63;;
22336;SDS011;14992;50.844;4.418;2023-04-24T00:04:12;19.42;;;9.73;;
22336;SDS011;14992;50.844;4.418;2023-04-24T00:06:44;17.40;;;8.07;;
22336;SDS011;14992;50.844;4.418;2023-04-24T00:09:16;17.75;;;9.13;;
22336;SDS011;14992;50.844;4.418;2023-04-24T00:11:45;17.48;;;9.10;;
22336;SDS011;14992;50.844;4.418;2023-04-24T00:14:17;21.55;;;9.65;;
22336;SDS011;14992;50.844;4.418;2023-04-24T00:16:46;17.05;;;9.05;;
22336;SDS011;14992;50.844;4.418;2023-04-24T00:19:16;16.85;;;9.82;;
22336;SDS011;14992;50.844;4.418;2023-04-24T00:24:17;17.42;;;9.02;;
22336;SDS011;14992;50.844;4.418;2023-04-24T00:26:46;21.65;;;10.00;;
22336;SDS011;14992;50.844;4.418;2023-04-24T00:29:17;15.93;;;9.93;;
22336;SDS011;14992;50.844;4.418;2023-04-24T00:31:45;17.52;;;9.02;;
22336;SDS011;14992;50.844;4.418;2023-04-24T00:34:15;19.02;;;8.95;;
22336;SDS011;14992;50.844;4.418;2023-04-24T00:36:43;20.00;;;10.15;;
22336;SDS011;14992;50.844;4.418;2023-04-24T00:39:13;17.90;;;10.10;;
22336;SDS011;14992;50.844;4.418;2023-04-24T00:41:42;20.95;;;10.18;;
22336;SDS011;14992;50.844;4.418;2023-04-24T00:44:12;18.60;;;9.45;;
22336;SDS011;14992;50.844;4.418;2023-04-24T00:46:42;19.92;;;10.27;;
22336;SDS011;14992;50.844;4.418;2023-04-24T00:49:11;20.42;;;11.55;;
22336;SDS011;14992;50.844;4.418;2023-04-24T00:51:41;20.48;;;10.38;;
22336;SDS011;14992;50.844;4.418;2023-04-24T00:54:12;18.55;;;9.77;;
22336;SDS011;14992;50.844;4.418;2023-04-24T00:56:43;23.30;;;10.32;;
22336;SDS011;14992;50.844;4.418;2023-04-24T00:59:13;16.70;;;9.52;;
22336;SDS011;14992;50.844;4.418;2023-04-24T01:01:46;20.58;;;10.02;;
22336;SDS011;14992;50.844;4.418;2023-04-24T01:04:16;24.35;;;10.52;;
22336;SDS011;14992;50.844;4.418;2023-04-24T01:06:47;16.80;;;9.57;;
22336;SDS011;14992;50.844;4.418;2023-04-24T01:09:19;18.80;;;10.13;;
22336;SDS011;14992;50.844;4.418;2023-04-24T01:11:50;18.25;;;10.23;;
22336;SDS011;14992;50.844;4.418;2023-04-24T01:14:19;20.30;;;10.95;;
22336;SDS011;14992;50.844;4.418;2023-04-24T01:16:50;17.88;;;9.23;;
22336;SDS011;14992;50.844;4.418;2023-04-24T01:19:20;20.80;;;10.30;;
22336;SDS011;14992;50.844;4.418;2023-04-24T01:21:50;27.88;;;10.25;;
22336;SDS011;14992;50.844;4.418;2023-04-24T01:24:23;20.80;;;10.10;;
22336;SDS011;14992;50.844;4.418;2023-04-24T01:26:53;20.45;;;10.25;;
22336;SDS011;14992;50.844;4.418;2023-04-24T01:29:23;15.48;;;9.88;;
22336;SDS011;14992;50.844;4.418;2023-04-24T01:31:52;16.42;;;9.65;;
22336;SDS011;14992;50.844;4.418;2023-04-24T01:34:21;16.52;;;9.15;;
22336;SDS011;14992;50.844;4.418;2023-04-24T01:36:51;16.27;;;9.90;;
22336;SDS011;14992;50.844;4.418;2023-04-24T01:39:20;13.75;;;8.32;;
22336;SDS011;14992;50.844;4.418;2023-04-24T01:41:51;14.40;;;8.52;;
22336;SDS011;14992;50.844;4.418;2023-04-24T01:44:21;16.75;;;8.77;;
22336;SDS011;14992;50.844;4.418;2023-04-24T01:46:50;14.45;;;8.93;;
22336;SDS011;14992;50.844;4.418;2023-04-24T01:49:21;14.98;;;9.07;;
22336;SDS011;14992;50.844;4.418;2023-04-24T01:51:50;14.85;;;9.25;;
22336;SDS011;14992;50.844;4.418;2023-04-24T01:54:20;20.17;;;10.15;;
22336;SDS011;14992;50.844;4.418;2023-04-24T01:56:49;16.23;;;8.43;;
22336;SDS011;14992;50.844;4.418;2023-04-24T01:59:20;17.92;;;10.02;;
22336;SDS011;14992;50.844;4.418;2023-04-24T02:01:50;14.77;;;9.27;;
22336;SDS011;14992;50.844;4.418;2023-04-24T02:04:19;17.20;;;8.85;;
22336;SDS011;14992;50.844;4.418;2023-04-24T02:06:48;14.80;;;9.07;;
22336;SDS011;14992;50.844;4.418;2023-04-24T02:09:18;14.52;;;8.68;;
22336;SDS011;14992;50.844;4.418;2023-04-24T02:11:50;17.17;;;9.57;;
22336;SDS011;14992;50.844;4.418;2023-04-24T02:14:20;16.80;;;9.77;;
22336;SDS011;14992;50.844;4.418;2023-04-24T02:16:50;17.58;;;10.45;;
22336;SDS011;14992;50.844;4.418;2023-04-24T02:19:20;14.73;;;9.20;;
22336;SDS011;14992;50.844;4.418;2023-04-24T02:21:50;22.15;;;10.77;;
22336;SDS011;14992;50.844;4.418;2023-04-24T02:24:19;16.70;;;10.40;;
22336;SDS011;14992;50.844;4.418;2023-04-24T02:26:48;18.88;;;10.82;;
22336;SDS011;14992;50.844;4.418;2023-04-24T02:29:17;18.02;;;10.70;;
22336;SDS011;14992;50.844;4.418;2023-04-24T02:31:49;18.73;;;11.23;;
22336;SDS011;14992;50.844;4.418;2023-04-24T02:34:21;19.85;;;10.48;;
22336;SDS011;14992;50.844;4.418;2023-04-24T02:36:51;18.38;;;11.05;;
22336;SDS011;14992;50.844;4.418;2023-04-24T02:39:21;18.90;;;11.32;;
22336;SDS011;14992;50.844;4.418;2023-04-24T02:41:52;20.27;;;11.10;;
22336;SDS011;14992;50.844;4.418;2023-04-24T02:44:23;15.98;;;9.98;;
22336;SDS011;14992;50.844;4.418;2023-04-24T02:46:52;17.60;;;10.18;;
22336;SDS011;14992;50.844;4.418;2023-04-24T02:49:22;17.38;;;9.85;;
22336;SDS011;14992;50.844;4.418;2023-04-24T02:51:51;21.63;;;10.00;;
22336;SDS011;14992;50.844;4.418;2023-04-24T02:54:20;19.52;;;9.45;;
22336;SDS011;14992;50.844;4.418;2023-04-24T02:56:50;15.63;;;9.15;;
22336;SDS011;14992;50.844;4.418;2023-04-24T02:59:19;16.00;;;10.68;;
22336;SDS011;14992;50.844;4.418;2023-04-24T03:01:50;15.18;;;10.07;;
22336;SDS011;14992;50.844;4.418;2023-04-24T03:04:20;18.77;;;9.48;;
22336;SDS011;14992;50.844;4.418;2023-04-24T03:06:50;19.23;;;9.30;;
22336;SDS011;14992;50.844;4.418;2023-04-24T03:09:20;16.30;;;8.60;;
22336;SDS011;14992;50.844;4.418;2023-04-24T03:11:50;16.70;;;8.88;;
22336;SDS011;14992;50.844;4.418;2023-04-24T03:14:19;15.70;;;8.82;;
22336;SDS011;14992;50.844;4.418;2023-04-24T03:16:48;16.33;;;9.30;;
22336;SDS011;14992;50.844;4.418;2023-04-24T03:19:19;18.42;;;8.38;;
22336;SDS011;14992;50.844;4.418;2023-04-24T03:22:03;17.15;;;8.35;;
22336;SDS011;14992;50.844;4.418;2023-04-24T03:24:34;15.23;;;7.38;;
22336;SDS011;14992;50.844;4.418;2023-04-24T03:27:03;13.70;;;8.07;;
22336;SDS011;14992;50.844;4.418;2023-04-24T03:29:50;13.00;;;6.68;;
22336;SDS011;14992;50.844;4.418;2023-04-24T03:32:34;10.82;;;6.88;;
22336;SDS011;14992;50.844;4.418;2023-04-24T03:35:09;13.65;;;7.57;;
22336;SDS011;14992;50.844;4.418;2023-04-24T03:37:38;13.30;;;8.10;;
22336;SDS011;14992;50.844;4.418;2023-04-24T03:40:28;12.95;;;7.55;;
22336;SDS011;14992;50.844;4.418;2023-04-24T03:42:58;12.63;;;6.97;;
22336;SDS011;14992;50.844;4.418;2023-04-24T03:45:27;12.63;;;7.10;;
22336;SDS011;14992;50.844;4.418;2023-04-24T03:47:58;12.25;;;7.30;;
22336;SDS011;14992;50.844;4.418;2023-04-24T03:50:28;11.95;;;7.25;;
22336;SDS011;14992;50.844;4.418;2023-04-24T03:52:58;13.32;;;7.03;;
22336;SDS011;14992;50.844;4.418;2023-04-24T03:55:37;10.27;;;6.20;;
22336;SDS011;14992;50.844;4.418;2023-04-24T03:58:06;13.57;;;7.25;;
22336;SDS011;14992;50.844;4.418;2023-04-24T04:00:35;12.15;;;6.65;;
22336;SDS011;14992;50.844;4.418;2023-04-24T04:03:28;10.45;;;6.70;;
22336;SDS011;14992;50.844;4.418;2023-04-24T04:05:58;13.45;;;6.38;;
22336;SDS011;14992;50.844;4.418;2023-04-24T04:08:29;10.23;;;5.85;;
22336;SDS011;14992;50.844;4.418;2023-04-24T04:10:58;9.07;;;5.70;;
22336;SDS011;14992;50.844;4.418;2023-04-24T04:13:30;7.57;;;5.13;;
22336;SDS011;14992;50.844;4.418;2023-04-24T04:15:59;8.27;;;5.03;;
22336;SDS011;14992;50.844;4.418;2023-04-24T04:18:30;6.28;;;4.40;;
22336;SDS011;14992;50.844;4.418;2023-04-24T04:21:00;7.07;;;4.85;;
22336;SDS011;14992;50.844;4.418;2023-04-24T04:23:30;6.85;;;4.75;;
22336;SDS011;14992;50.844;4.418;2023-04-24T04:26:14;6.15;;;4.60;;
22336;SDS011;14992;50.844;4.418;2023-04-24T04:29:01;7.90;;;4.82;;
22336;SDS011;14992;50.844;4.418;2023-04-24T04:31:32;8.57;;;4.97;;
22336;SDS011;14992;50.844;4.418;2023-04-24T04:34:07;7.90;;;5.47;;
22336;SDS011;14992;50.844;4.418;2023-04-24T04:36:37;7.97;;;4.55;;
22336;SDS011;14992;50.844;4.418;2023-04-24T04:39:35;7.95;;;4.43;;
22336;SDS011;14992;50.844;4.418;2023-04-24T04:42:07;7.05;;;4.43;;
22336;SDS011;14992;50.844;4.418;2023-04-24T04:44:40;8.35;;;4.50;;
22336;SDS011;14992;50.844;4.418;2023-04-24T04:47:14;7.00;;;4.57;;
22336;SDS011;14992;50.844;4.418;2023-04-24T04:49:46;7.40;;;4.53;;
22336;SDS011;14992;50.844;4.418;2023-04-24T04:52:19;8.35;;;5.03;;
22336;SDS011;14992;50.844;4.418;2023-04-24T04:55:00;9.02;;;5.20;;
22336;SDS011;14992;50.844;4.418;2023-04-24T04:57:49;8.18;;;5.05;;
22336;SDS011;14992;50.844;4.418;2023-04-24T05:00:19;11.10;;;5.93;;
22336;SDS011;14992;50.844;4.418;2023-04-24T05:02:51;10.45;;;6.18;;
22336;SDS011;14992;50.844;4.418;2023-04-24T05:05:24;16.98;;;7.75;;
22336;SDS011;14992;50.844;4.418;2023-04-24T05:07:53;11.02;;;6.38;;
22336;SDS011;14992;50.844;4.418;2023-04-24T05:10:23;26.00;;;13.75;;
22336;SDS011;14992;50.844;4.418;2023-04-24T05:12:54;21.13;;;11.75;;
22336;SDS011;14992;50.844;4.418;2023-04-24T05:15:23;13.40;;;7.97;;
22336;SDS011;14992;50.844;4.418;2023-04-24T05:17:53;15.02;;;7.80;;
22336;SDS011;14992;50.844;4.418;2023-04-24T05:20:26;17.35;;;10.05;;
22336;SDS011;14992;50.844;4.418;2023-04-24T05:22:55;14.07;;;7.25;;
22336;SDS011;14992;50.844;4.418;2023-04-24T05:25:25;12.63;;;7.22;;
22336;SDS011;14992;50.844;4.418;2023-04-24T05:28:03;11.60;;;6.90;;
22336;SDS011;14992;50.844;4.418;2023-04-24T05:30:33;14.10;;;8.50;;
22336;SDS011;14992;50.844;4.418;2023-04-24T05:33:03;14.13;;;8.45;;
22336;SDS011;14992;50.844;4.418;2023-04-24T05:35:36;15.60;;;8.98;;
22336;SDS011;14992;50.844;4.418;2023-04-24T05:38:05;12.77;;;6.80;;
22336;SDS011;14992;50.844;4.418;2023-04-24T05:40:34;11.68;;;7.22;;
22336;SDS011;14992;50.844;4.418;2023-04-24T05:43:04;14.48;;;7.32;;
22336;SDS011;14992;50.844;4.418;2023-04-24T05:45:32;16.00;;;7.65;;
22336;SDS011;14992;50.844;4.418;2023-04-24T05:48:03;14.80;;;7.85;;
22336;SDS011;14992;50.844;4.418;2023-04-24T05:50:33;14.07;;;8.57;;
22336;SDS011;14992;50.844;4.418;2023-04-24T05:53:05;13.80;;;7.60;;
22336;SDS011;14992;50.844;4.418;2023-04-24T05:55:36;16.00;;;7.72;;
22336;SDS011;14992;50.844;4.418;2023-04-24T05:58:06;15.07;;;8.80;;
22336;SDS011;14992;50.844;4.418;2023-04-24T06:00:37;12.98;;;7.85;;
22336;SDS011;14992;50.844;4.418;2023-04-24T06:03:07;15.98;;;8.27;;
22336;SDS011;14992;50.844;4.418;2023-04-24T06:05:38;16.58;;;8.23;;
22336;SDS011;14992;50.844;4.418;2023-04-24T06:08:08;14.98;;;8.63;;
22336;SDS011;14992;50.844;4.418;2023-04-24T06:10:39;14.32;;;8.48;;
22336;SDS011;14992;50.844;4.418;2023-04-24T06:13:09;13.95;;;8.35;;
22336;SDS011;14992;50.844;4.418;2023-04-24T06:15:46;14.40;;;7.82;;
22336;SDS011;14992;50.844;4.418;2023-04-24T06:18:20;17.30;;;8.27;;
22336;SDS011;14992;50.844;4.418;2023-04-24T06:20:51;16.42;;;9.10;;
22336;SDS011;14992;50.844;4.418;2023-04-24T06:23:20;19.00;;;8.68;;
22336;SDS011;14992;50.844;4.418;2023-04-24T06:25:48;14.95;;;8.68;;
22336;SDS011;14992;50.844;4.418;2023-04-24T06:28:18;14.07;;;8.45;;
22336;SDS011;14992;50.844;4.418;2023-04-24T06:30:47;16.10;;;9.35;;
22336;SDS011;14992;50.844;4.418;2023-04-24T06:33:16;14.88;;;8.23;;
22336;SDS011;14992;50.844;4.418;2023-04-24T06:38:18;14.52;;;8.68;;
22336;SDS011;14992;50.844;4.418;2023-04-24T06:40:48;22.50;;;10.32;;
22336;SDS011;14992;50.844;4.418;2023-04-24T06:43:17;18.35;;;9.50;;
22336;SDS011;14992;50.844;4.418;2023-04-24T06:45:46;18.45;;;8.38;;
22336;SDS011;14992;50.844;4.418;2023-04-24T06:48:15;16.10;;;9.55;;
22336;SDS011;14992;50.844;4.418;2023-04-24T06:50:44;17.70;;;10.68;;
22336;SDS011;14992;50.844;4.418;2023-04-24T06:53:15;17.50;;;10.85;;
22336;SDS011;14992;50.844;4.418;2023-04-24T06:55:44;20.40;;;9.77;;
22336;SDS011;14992;50.844;4.418;2023-04-24T06:58:13;21.75;;;11.10;;
22336;SDS011;14992;50.844;4.418;2023-04-24T07:00:42;24.67;;;11.10;;
22336;SDS011;14992;50.844;4.418;2023-04-24T07:03:12;22.40;;;10.73;;
22336;SDS011;14992;50.844;4.418;2023-04-24T07:05:42;20.30;;;10.15;;
22336;SDS011;14992;50.844;4.418;2023-04-24T07:08:11;18.77;;;9.65;;
22336;SDS011;14992;50.844;4.418;2023-04-24T07:10:42;19.80;;;10.52;;
22336;SDS011;14992;50.844;4.418;2023-04-24T07:13:10;21.88;;;10.15;;
22336;SDS011;14992;50.844;4.418;2023-04-24T07:15:39;20.17;;;10.85;;
22336;SDS011;14992;50.844;4.418;2023-04-24T07:18:08;21.48;;;10.23;;
22336;SDS011;14992;50.844;4.418;2023-04-24T07:20:37;17.13;;;9.02;;
22336;SDS011;14992;50.844;4.418;2023-04-24T07:23:06;20.10;;;10.93;;
22336;SDS011;14992;50.844;4.418;2023-04-24T07:25:36;17.60;;;9.93;;
22336;SDS011;14992;50.844;4.418;2023-04-24T07:28:07;18.20;;;9.27;;
22336;SDS011;14992;50.844;4.418;2023-04-24T07:30:36;16.30;;;8.73;;
22336;SDS011;14992;50.844;4.418;2023-04-24T07:33:06;18.40;;;8.45;;
22336;SDS011;14992;50.844;4.418;2023-04-24T07:35:35;14.70;;;8.18;;
22336;SDS011;14992;50.844;4.418;2023-04-24T07:38:04;13.95;;;7.43;;
22336;SDS011;14992;50.844;4.418;2023-04-24T07:40:33;14.45;;;7.10;;
22336;SDS011;14992;50.844;4.418;2023-04-24T07:43:02;15.07;;;6.72;;
22336;SDS011;14992;50.844;4.418;2023-04-24T07:45:32;11.65;;;6.18;;
22336;SDS011;14992;50.844;4.418;2023-04-24T07:48:04;10.55;;;5.53;;
22336;SDS011;14992;50.844;4.418;2023-04-24T07:50:33;12.13;;;5.50;;
22336;SDS011;14992;50.844;4.418;2023-04-24T07:53:02;17.48;;;6.38;;
22336;SDS011;14992;50.844;4.418;2023-04-24T07:55:31;17.10;;;7.00;;
22336;SDS011;14992;50.844;4.418;2023-04-24T07:58:00;20.40;;;8.38;;
22336;SDS011;14992;50.844;4.418;2023-04-24T08:00:29;15.65;;;7.70;;
22336;SDS011;14992;50.844;4.418;2023-04-24T08:02:59;17.58;;;8.18;;
22336;SDS011;14992;50.844;4.418;2023-04-24T08:05:29;12.85;;;7.63;;
22336;SDS011;14992;50.844;4.418;2023-04-24T08:07:58;15.02;;;8.15;;
22336;SDS011;14992;50.844;4.418;2023-04-24T08:10:27;18.90;;;6.97;;
22336;SDS011;14992;50.844;4.418;2023-04-24T08:12:56;10.45;;;6.72;;
22336;SDS011;14992;50.844;4.418;2023-04-24T08:15:26;15.65;;;7.55;;
22336;SDS011;14992;50.844;4.418;2023-04-24T08:18:59;15.18;;;7.88;;
22336;SDS011;14992;50.844;4.418;2023-04-24T08:21:28;16.67;;;7.65;;
22336;SDS011;14992;50.844;4.418;2023-04-24T08:23:57;15.50;;;8.25;;
22336;SDS011;14992;50.844;4.418;2023-04-24T08:26:26;11.80;;;6.57;;
22336;SDS011;14992;50.844;4.418;2023-04-24T08:28:55;11.20;;;6.30;;
22336;SDS011;14992;50.844;4.418;2023-04-24T08:31:24;16.10;;;6.90;;
22336;SDS011;14992;50.844;4.418;2023-04-24T08:33:54;11.63;;;6.47;;
22336;SDS011;14992;50.844;4.418;2023-04-24T08:36:25;15.00;;;6.07;;
22336;SDS011;14992;50.844;4.418;2023-04-24T08:39:13;9.80;;;5.95;;
22336;SDS011;14992;50.844;4.418;2023-04-24T08:41:43;11.57;;;5.95;;
22336;SDS011;14992;50.844;4.418;2023-04-24T08:44:12;15.13;;;6.43;;
22336;SDS011;14992;50.844;4.418;2023-04-24T08:46:43;15.38;;;5.85;;
22336;SDS011;14992;50.844;4.418;2023-04-24T08:49:15;10.90;;;5.45;;
22336;SDS011;14992;50.844;4.418;2023-04-24T08:51:45;8.77;;;4.65;;
22336;SDS011;14992;50.844;4.418;2023-04-24T08:54:15;11.07;;;5.75;;
22336;SDS011;14992;50.844;4.418;2023-04-24T08:56:45;9.35;;;4.60;;
22336;SDS011;14992;50.844;4.418;2023-04-24T08:59:16;9.65;;;5.07;;
22336;SDS011;14992;50.844;4.418;2023-04-24T09:01:46;10.68;;;5.40;;
22336;SDS011;14992;50.844;4.418;2023-04-24T09:04:18;8.32;;;4.75;;
22336;SDS011;14992;50.844;4.418;2023-04-24T09:06:55;9.80;;;4.47;;
22336;SDS011;14992;50.844;4.418;2023-04-24T09:09:26;8.25;;;4.53;;
22336;SDS011;14992;50.844;4.418;2023-04-24T09:14:27;10.32;;;3.88;;
22336;SDS011;14992;50.844;4.418;2023-04-24T09:16:59;7.40;;;3.70;;
22336;SDS011;14992;50.844;4.418;2023-04-24T09:19:28;6.82;;;3.50;;
22336;SDS011;14992;50.844;4.418;2023-04-24T09:21:59;7.72;;;4.07;;
22336;SDS011;14992;50.844;4.418;2023-04-24T09:24:33;7.97;;;3.85;;
22336;SDS011;14992;50.844;4.418;2023-04-24T09:27:02;8.20;;;4.15;;
22336;SDS011;14992;50.844;4.418;2023-04-24T09:29:32;5.40;;;3.75;;
22336;SDS011;14992;50.844;4.418;2023-04-24T09:32:12;6.05;;;3.63;;
22336;SDS011;14992;50.844;4.418;2023-04-24T09:34:49;9.15;;;3.50;;
22336;SDS011;14992;50.844;4.418;2023-04-24T09:37:28;8.63;;;4.10;;
22336;SDS011;14992;50.844;4.418;2023-04-24T09:40:07;9.38;;;4.20;;
22336;SDS011;14992;50.844;4.418;2023-04-24T09:42:40;8.13;;;4.57;;
22336;SDS011;14992;50.844;4.418;2023-04-24T09:45:13;5.93;;;3.15;;
22336;SDS011;14992;50.844;4.418;2023-04-24T09:47:42;7.68;;;3.60;;
22336;SDS011;14992;50.844;4.418;2023-04-24T09:50:12;5.70;;;3.28;;
22336;SDS011;14992;50.844;4.418;2023-04-24T09:52:57;7.20;;;3.10;;
22336;SDS011;14992;50.844;4.418;2023-04-24T09:55:27;7.28;;;3.42;;
22336;SDS011;14992;50.844;4.418;2023-04-24T09:57:56;7.47;;;3.13;;
22336;SDS011;14992;50.844;4.418;2023-04-24T10:00:28;5.95;;;3.25;;
22336;SDS011;14992;50.844;4.418;2023-04-24T10:02:58;7.85;;;3.42;;
22336;SDS011;14992;50.844;4.418;2023-04-24T10:05:29;9.45;;;3.80;;
22336;SDS011;14992;50.844;4.418;2023-04-24T10:08:04;4.32;;;3.30;;
22336;SDS011;14992;50.844;4.418;2023-04-24T10:10:34;7.65;;;3.30;;
22336;SDS011;14992;50.844;4.418;2023-04-24T10:13:07;7.22;;;4.40;;
22336;SDS011;14992;50.844;4.418;2023-04-24T10:15:37;8.20;;;3.42;;
22336;SDS011;14992;50.844;4.418;2023-04-24T10:18:08;7.93;;;3.05;;
22336;SDS011;14992;50.844;4.418;2023-04-24T10:20:38;6.63;;;3.38;;
22336;SDS011;14992;50.844;4.418;2023-04-24T10:23:10;5.10;;;3.33;;
22336;SDS011;14992;50.844;4.418;2023-04-24T10:25:40;5.80;;;2.92;;
22336;SDS011;14992;50.844;4.418;2023-04-24T10:28:09;6.78;;;3.60;;
22336;SDS011;14992;50.844;4.418;2023-04-24T10:30:38;8.52;;;3.42;;
22336;SDS011;14992;50.844;4.418;2023-04-24T10:33:11;7.70;;;3.38;;
22336;SDS011;14992;50.844;4.418;2023-04-24T10:35:41;6.90;;;3.78;;
22336;SDS011;14992;50.844;4.418;2023-04-24T10:38:18;6.47;;;4.15;;
22336;SDS011;14992;50.844;4.418;2023-04-24T10:40:51;6.47;;;3.70;;
22336;SDS011;14992;50.844;4.418;2023-04-24T10:43:35;5.72;;;3.65;;
22336;SDS011;14992;50.844;4.418;2023-04-24T10:46:08;5.88;;;3.70;;
22336;SDS011;14992;50.844;4.418;2023-04-24T10:48:41;7.10;;;4.28;;
22336;SDS011;14992;50.844;4.418;2023-04-24T10:51:12;7.13;;;4.00;;
22336;SDS011;14992;50.844;4.418;2023-04-24T10:53:44;11.05;;;4.03;;
22336;SDS011;14992;50.844;4.418;2023-04-24T10:56:15;6.35;;;4.78;;
22336;SDS011;14992;50.844;4.418;2023-04-24T10:58:50;9.23;;;3.45;;
22336;SDS011;14992;50.844;4.418;2023-04-24T11:01:24;10.65;;;3.97;;
22336;SDS011;14992;50.844;4.418;2023-04-24T11:03:55;7.22;;;3.90;;
22336;SDS011;14992;50.844;4.418;2023-04-24T11:06:29;7.68;;;4.15;;
22336;SDS011;14992;50.844;4.418;2023-04-24T11:09:05;8.95;;;4.28;;
22336;SDS011;14992;50.844;4.418;2023-04-24T11:11:38;9.68;;;4.40;;
22336;SDS011;14992;50.844;4.418;2023-04-24T11:14:15;6.78;;;4.50;;
22336;SDS011;14992;50.844;4.418;2023-04-24T11:16:51;6.25;;;3.45;;
22336;SDS011;14992;50.844;4.418;2023-04-24T11:19:22;6.75;;;4.38;;
22336;SDS011;14992;50.844;4.418;2023-04-24T11:21:54;10.00;;;4.70;;
22336;SDS011;14992;50.844;4.418;2023-04-24T11:24:29;8.80;;;4.82;;
22336;SDS011;14992;50.844;4.418;2023-04-24T11:27:05;7.28;;;4.10;;
22336;SDS011;14992;50.844;4.418;2023-04-24T11:29:40;10.00;;;4.60;;
22336;SDS011;14992;50.844;4.418;2023-04-24T11:32:24;8.60;;;4.18;;
22336;SDS011;14992;50.844;4.418;2023-04-24T11:34:55;6.10;;;4.30;;
22336;SDS011;14992;50.844;4.418;2023-04-24T11:37:26;6.28;;;4.10;;
22336;SDS011;14992;50.844;4.418;2023-04-24T11:39:58;10.43;;;4.70;;
22336;SDS011;14992;50.844;4.418;2023-04-24T11:42:29;6.78;;;4.00;;
22336;SDS011;14992;50.844;4.418;2023-04-24T11:45:06;6.57;;;4.03;;
22336;SDS011;14992;50.844;4.418;2023-04-24T11:47:36;6.07;;;3.85;;
22336;SDS011;14992;50.844;4.418;2023-04-24T11:50:07;7.30;;;4.75;;
22336;SDS011;14992;50.844;4.418;2023-04-24T11:52:38;7.00;;;4.43;;
22336;SDS011;14992;50.844;4.418;2023-04-24T11:55:12;6.90;;;4.63;;
22336;SDS011;14992;50.844;4.418;2023-04-24T11:57:54;10.90;;;6.50;;
22336;SDS011;14992;50.844;4.418;2023-04-24T12:00:25;5.50;;;4.15;;
22336;SDS011;14992;50.844;4.418;2023-04-24T12:03:03;7.25;;;4.13;;
22336;SDS011;14992;50.844;4.418;2023-04-24T12:05:35;9.02;;;4.55;;
22336;SDS011;14992;50.844;4.418;2023-04-24T12:08:06;6.88;;;4.82;;
22336;SDS011;14992;50.844;4.418;2023-04-24T12:10:36;8.20;;;4.43;;
22336;SDS011;14992;50.844;4.418;2023-04-24T12:13:08;10.40;;;4.90;;
22336;SDS011;14992;50.844;4.418;2023-04-24T12:15:39;6.97;;;5.10;;
22336;SDS011;14992;50.844;4.418;2023-04-24T12:18:11;9.07;;;5.35;;
22336;SDS011;14992;50.844;4.418;2023-04-24T12:20:40;9.00;;;5.50;;
22336;SDS011;14992;50.844;4.418;2023-04-24T12:23:10;9.02;;;5.03;;
22336;SDS011;14992;50.844;4.418;2023-04-24T12:25:40;6.88;;;4.70;;
22336;SDS011;14992;50.844;4.418;2023-04-24T12:28:10;8.13;;;5.30;;
22336;SDS011;14992;50.844;4.418;2023-04-24T12:30:41;7.57;;;4.82;;
22336;SDS011;14992;50.844;4.418;2023-04-24T12:33:12;8.02;;;4.75;;
22336;SDS011;14992;50.844;4.418;2023-04-24T12:35:41;7.10;;;3.85;;
22336;SDS011;14992;50.844;4.418;2023-04-24T12:38:11;6.72;;;4.35;;
22336;SDS011;14992;50.844;4.418;2023-04-24T12:40:43;8.13;;;4.95;;
22336;SDS011;14992;50.844;4.418;2023-04-24T12:43:13;6.65;;;4.63;;
22336;SDS011;14992;50.844;4.418;2023-04-24T12:45:43;5.60;;;4.00;;
22336;SDS011;14992;50.844;4.418;2023-04-24T12:48:12;6.00;;;3.58;;
22336;SDS011;14992;50.844;4.418;2023-04-24T12:50:42;6.85;;;3.53;;
22336;SDS011;14992;50.844;4.418;2023-04-24T12:53:13;6.85;;;3.53;;
22336;SDS011;14992;50.844;4.418;2023-04-24T12:55:45;5.90;;;3.25;;
22336;SDS011;14992;50.844;4.418;2023-04-24T12:58:20;7.40;;;4.15;;
22336;SDS011;14992;50.844;4.418;2023-04-24T13:00:49;6.82;;;3.72;;
22336;SDS011;14992;50.844;4.418;2023-04-24T13:03:19;6.80;;;4.28;;
22336;SDS011;14992;50.844;4.418;2023-04-24T13:05:49;4.57;;;3.28;;
22336;SDS011;14992;50.844;4.418;2023-04-24T13:08:19;6.07;;;3.80;;
22336;SDS011;14992;50.844;4.418;2023-04-24T13:10:51;7.28;;;3.50;;
22336;SDS011;14992;50.844;4.418;2023-04-24T13:13:20;6.05;;;3.80;;
22336;SDS011;14992;50.844;4.418;2023-04-24T13:15:50;5.15;;;3.08;;
22336;SDS011;14992;50.844;4.418;2023-04-24T13:18:19;7.47;;;3.33;;
22336;SDS011;14992;50.844;4.418;2023-04-24T13:20:48;5.22;;;3.72;;
22336;SDS011;14992;50.844;4.418;2023-04-24T13:23:19;5.25;;;3.20;;
22336;SDS011;14992;50.844;4.418;2023-04-24T13:25:49;6.07;;;3.15;;
22336;SDS011;14992;50.844;4.418;2023-04-24T13:28:22;7.25;;;3.30;;
22336;SDS011;14992;50.844;4.418;2023-04-24T13:30:51;5.97;;;2.88;;
22336;SDS011;14992;50.844;4.418;2023-04-24T13:33:20;3.80;;;2.58;;
22336;SDS011;14992;50.844;4.418;2023-04-24T13:35:50;5.00;;;3.20;;
22336;SDS011;14992;50.844;4.418;2023-04-24T13:38:19;3.80;;;3.08;;
22336;SDS011;14992;50.844;4.418;2023-04-24T13:40:49;6.82;;;3.13;;
22336;SDS011;14992;50.844;4.418;2023-04-24T13:43:19;7.60;;;3.45;;
22336;SDS011;14992;50.844;4.418;2023-04-24T13:45:48;8.77;;;3.00;;
22336;SDS011;14992;50.844;4.418;2023-04-24T13:48:18;4.85;;;2.70;;
22336;SDS011;14992;50.844;4.418;2023-04-24T13:50:48;4.78;;;2.60;;
22336;SDS011;14992;50.844;4.418;2023-04-24T13:53:17;5.18;;;2.80;;
22336;SDS011;14992;50.844;4.418;2023-04-24T13:55:47;3.10;;;2.30;;
22336;SDS011;14992;50.844;4.418;2023-04-24T13:58:18;3.55;;;2.13;;
22336;SDS011;14992;50.844;4.418;2023-04-24T14:00:47;3.17;;;2.50;;
22336;SDS011;14992;50.844;4.418;2023-04-24T14:03:17;3.50;;;2.47;;
22336;SDS011;14992;50.844;4.418;2023-04-24T14:05:47;4.80;;;2.90;;
22336;SDS011;14992;50.844;4.418;2023-04-24T14:08:17;3.22;;;2.28;;
22336;SDS011;14992;50.844;4.418;2023-04-24T14:10:46;5.15;;;3.20;;
22336;SDS011;14992;50.844;4.418;2023-04-24T14:13:18;3.00;;;2.35;;
22336;SDS011;14992;50.844;4.418;2023-04-24T14:15:49;6.15;;;2.58;;
22336;SDS011;14992;50.844;4.418;2023-04-24T14:18:18;5.72;;;1.83;;
22336;SDS011;14992;50.844;4.418;2023-04-24T14:20:47;2.97;;;2.10;;
22336;SDS011;14992;50.844;4.418;2023-04-24T14:23:17;4.30;;;2.15;;
22336;SDS011;14992;50.844;4.418;2023-04-24T14:25:47;2.22;;;1.58;;
22336;SDS011;14992;50.844;4.418;2023-04-24T14:28:20;2.55;;;1.52;;
22336;SDS011;14992;50.844;4.418;2023-04-24T14:30:53;4.70;;;2.03;;
22336;SDS011;14992;50.844;4.418;2023-04-24T14:33:22;8.93;;;4.47;;
22336;SDS011;14992;50.844;4.418;2023-04-24T14:35:51;5.07;;;2.45;;
22336;SDS011;14992;50.844;4.418;2023-04-24T14:38:20;4.50;;;2.10;;
22336;SDS011;14992;50.844;4.418;2023-04-24T14:40:50;5.15;;;2.83;;
22336;SDS011;14992;50.844;4.418;2023-04-24T14:43:34;4.78;;;2.38;;
22336;SDS011;14992;50.844;4.418;2023-04-24T14:46:04;3.85;;;2.08;;
22336;SDS011;14992;50.844;4.418;2023-04-24T14:48:33;5.22;;;2.35;;
22336;SDS011;14992;50.844;4.418;2023-04-24T14:51:02;3.40;;;1.90;;
22336;SDS011;14992;50.844;4.418;2023-04-24T14:53:32;4.55;;;2.55;;
22336;SDS011;14992;50.844;4.418;2023-04-24T14:56:02;3.67;;;2.15;;
22336;SDS011;14992;50.844;4.418;2023-04-24T14:58:31;3.97;;;2.42;;
22336;SDS011;14992;50.844;4.418;2023-04-24T15:01:03;2.72;;;1.67;;
22336;SDS011;14992;50.844;4.418;2023-04-24T15:03:32;4.95;;;2.50;;
22336;SDS011;14992;50.844;4.418;2023-04-24T15:06:03;6.97;;;2.72;;
22336;SDS011;14992;50.844;4.418;2023-04-24T15:08:32;4.57;;;3.50;;
22336;SDS011;14992;50.844;4.418;2023-04-24T15:11:01;4.15;;;1.92;;